sensor_id;sensor_type;location;lat;lon;timestamp;temperature;humidity
17762;DHT22;9005;48.838;10.112;2024-03-02T00:00:14;5.20;90.00
17762;DHT22;9005;48.838;10.112;2024-03-02T00:02:42;5.20;89.80
17762;DHT22;9005;48.838;10.112;2024-03-02T00:05:12;5.20;89.60
17762;DHT22;9005;48.838;10.112;2024-03-02T00:07:40;5.50;89.60
17762;DHT22;9005;48.838;10.112;2024-03-02T00:10:09;5.30;89.40
17762;DHT22;9005;48.838;10.112;2024-03-02T00:12:37;5.30;89.30
17762;DHT22;9005;48.838;10.112;2024-03-02T00:15:05;5.30;89.20
17762;DHT22;9005;48.838;10.112;2024-03-02T00:17:33;5.30;89.00
17762;DHT22;9005;48.838;10.112;2024-03-02T00:20:00;5.30;89.00
17762;DHT22;9005;48.838;10.112;2024-03-02T00:22:29;5.30;89.00
17762;DHT22;9005;48.838;10.112;2024-03-02T00:24:56;5.30;89.00
17762;DHT22;9005;48.838;10.112;2024-03-02T00:27:23;5.30;88.80
17762;DHT22;9005;48.838;10.112;2024-03-02T00:29:50;5.30;88.70
17762;DHT22;9005;48.838;10.112;2024-03-02T00:32:17;5.30;88.70
17762;DHT22;9005;48.838;10.112;2024-03-02T00:34:44;5.30;88.80
17762;DHT22;9005;48.838;10.112;2024-03-02T00:37:11;5.40;88.70
17762;DHT22;9005;48.838;10.112;2024-03-02T00:39:39;5.40;88.70
17762;DHT22;9005;48.838;10.112;2024-03-02T00:42:06;5.40;88.60
17762;DHT22;9005;48.838;10.112;2024-03-02T00:44:33;5.40;88.50
17762;DHT22;9005;48.838;10.112;2024-03-02T00:47:01;5.40;88.50
17762;DHT22;9005;48.838;10.112;2024-03-02T00:49:28;5.40;88.50
17762;DHT22;9005;48.838;10.112;2024-03-02T00:51:55;5.60;88.60
17762;DHT22;9005;48.838;10.112;2024-03-02T00:54:23;5.40;88.80
17762;DHT22;9005;48.838;10.112;2024-03-02T00:56:51;5.40;88.70
17762;DHT22;9005;48.838;10.112;2024-03-02T00:59:20;5.40;88.70
17762;DHT22;9005;48.838;10.112;2024-03-02T01:01:48;5.40;88.70
17762;DHT22;9005;48.838;10.112;2024-03-02T01:04:15;5.40;88.60
17762;DHT22;9005;48.838;10.112;2024-03-02T01:06:42;5.40;88.60
17762;DHT22;9005;48.838;10.112;2024-03-02T01:09:08;5.40;88.50
17762;DHT22;9005;48.838;10.112;2024-03-02T01:11:37;5.40;88.50
17762;DHT22;9005;48.838;10.112;2024-03-02T01:14:05;5.40;88.50
17762;DHT22;9005;48.838;10.112;2024-03-02T01:16:32;5.40;88.30
17762;DHT22;9005;48.838;10.112;2024-03-02T01:18:58;5.40;88.30
17762;DHT22;9005;48.838;10.112;2024-03-02T01:21:25;5.70;88.20
17762;DHT22;9005;48.838;10.112;2024-03-02T01:23:52;5.40;88.10
17762;DHT22;9005;48.838;10.112;2024-03-02T01:26:19;5.40;88.20
17762;DHT22;9005;48.838;10.112;2024-03-02T01:28:46;5.40;88.00
17762;DHT22;9005;48.838;10.112;2024-03-02T01:31:14;5.40;87.70
17762;DHT22;9005;48.838;10.112;2024-03-02T01:33:40;5.40;87.50
17762;DHT22;9005;48.838;10.112;2024-03-02T01:36:07;5.40;87.30
17762;DHT22;9005;48.838;10.112;2024-03-02T01:38:34;5.30;87.50
17762;DHT22;9005;48.838;10.112;2024-03-02T01:41:01;5.30;87.70
17762;DHT22;9005;48.838;10.112;2024-03-02T01:43:28;5.30;87.90
17762;DHT22;9005;48.838;10.112;2024-03-02T01:45:55;5.20;87.50
17762;DHT22;9005;48.838;10.112;2024-03-02T01:48:23;5.20;87.70
17762;DHT22;9005;48.838;10.112;2024-03-02T01:50:50;5.20;87.60
17762;DHT22;9005;48.838;10.112;2024-03-02T01:53:17;5.10;87.70
17762;DHT22;9005;48.838;10.112;2024-03-02T01:55:44;5.10;88.00
17762;DHT22;9005;48.838;10.112;2024-03-02T01:58:11;5.00;88.10
17762;DHT22;9005;48.838;10.112;2024-03-02T02:00:38;4.90;88.20
17762;DHT22;9005;48.838;10.112;2024-03-02T02:03:05;4.80;88.30
17762;DHT22;9005;48.838;10.112;2024-03-02T02:05:33;4.80;88.80
17762;DHT22;9005;48.838;10.112;2024-03-02T02:08:01;4.70;89.20
17762;DHT22;9005;48.838;10.112;2024-03-02T02:10:27;4.70;89.60
17762;DHT22;9005;48.838;10.112;2024-03-02T02:12:54;4.60;89.70
17762;DHT22;9005;48.838;10.112;2024-03-02T02:15:28;4.60;89.90
17762;DHT22;9005;48.838;10.112;2024-03-02T02:17:55;4.50;90.10
17762;DHT22;9005;48.838;10.112;2024-03-02T02:20:23;4.50;90.30
17762;DHT22;9005;48.838;10.112;2024-03-02T02:22:56;4.50;90.50
17762;DHT22;9005;48.838;10.112;2024-03-02T02:25:22;4.50;90.80
17762;DHT22;9005;48.838;10.112;2024-03-02T02:27:49;4.50;91.10
17762;DHT22;9005;48.838;10.112;2024-03-02T02:30:19;4.50;91.10
17762;DHT22;9005;48.838;10.112;2024-03-02T02:32:46;4.60;91.10
17762;DHT22;9005;48.838;10.112;2024-03-02T02:35:13;4.80;91.00
17762;DHT22;9005;48.838;10.112;2024-03-02T02:37:39;4.60;90.90
17762;DHT22;9005;48.838;10.112;2024-03-02T02:40:09;4.60;90.70
17762;DHT22;9005;48.838;10.112;2024-03-02T02:42:35;4.70;90.70
17762;DHT22;9005;48.838;10.112;2024-03-02T02:45:02;4.60;90.60
17762;DHT22;9005;48.838;10.112;2024-03-02T02:47:29;4.70;90.60
17762;DHT22;9005;48.838;10.112;2024-03-02T02:49:56;4.70;90.30
17762;DHT22;9005;48.838;10.112;2024-03-02T02:52:22;4.70;90.30
17762;DHT22;9005;48.838;10.112;2024-03-02T02:54:49;4.70;90.30
17762;DHT22;9005;48.838;10.112;2024-03-02T02:57:18;4.70;90.20
17762;DHT22;9005;48.838;10.112;2024-03-02T02:59:44;4.70;90.10
17762;DHT22;9005;48.838;10.112;2024-03-02T03:02:11;4.70;90.00
17762;DHT22;9005;48.838;10.112;2024-03-02T03:04:40;4.70;89.90
17762;DHT22;9005;48.838;10.112;2024-03-02T03:07:06;4.70;89.80
17762;DHT22;9005;48.838;10.112;2024-03-02T03:09:33;4.70;89.70
17762;DHT22;9005;48.838;10.112;2024-03-02T03:12:04;4.70;89.60
17762;DHT22;9005;48.838;10.112;2024-03-02T03:14:32;4.60;89.50
17762;DHT22;9005;48.838;10.112;2024-03-02T03:16:59;4.60;89.70
17762;DHT22;9005;48.838;10.112;2024-03-02T03:19:26;4.50;89.70
17762;DHT22;9005;48.838;10.112;2024-03-02T03:21:53;4.50;89.70
17762;DHT22;9005;48.838;10.112;2024-03-02T03:24:19;4.40;90.10
17762;DHT22;9005;48.838;10.112;2024-03-02T03:26:46;4.40;90.30
17762;DHT22;9005;48.838;10.112;2024-03-02T03:29:13;4.30;90.40
17762;DHT22;9005;48.838;10.112;2024-03-02T03:31:41;4.30;90.70
17762;DHT22;9005;48.838;10.112;2024-03-02T03:34:07;4.20;90.90
17762;DHT22;9005;48.838;10.112;2024-03-02T03:36:34;4.20;91.00
17762;DHT22;9005;48.838;10.112;2024-03-02T03:39:01;4.10;91.20
17762;DHT22;9005;48.838;10.112;2024-03-02T03:41:28;4.10;91.60
17762;DHT22;9005;48.838;10.112;2024-03-02T03:43:55;4.10;91.70
17762;DHT22;9005;48.838;10.112;2024-03-02T03:46:22;4.10;91.80
17762;DHT22;9005;48.838;10.112;2024-03-02T03:48:50;4.10;92.00
17762;DHT22;9005;48.838;10.112;2024-03-02T03:51:16;4.10;92.20
17762;DHT22;9005;48.838;10.112;2024-03-02T03:53:43;4.10;92.50
17762;DHT22;9005;48.838;10.112;2024-03-02T03:56:10;4.10;92.60
17762;DHT22;9005;48.838;10.112;2024-03-02T03:58:36;4.30;92.60
17762;DHT22;9005;48.838;10.112;2024-03-02T04:01:03;4.10;92.50
17762;DHT22;9005;48.838;10.112;2024-03-02T04:03:30;4.10;92.30
17762;DHT22;9005;48.838;10.112;2024-03-02T04:05:58;4.10;92.30
17762;DHT22;9005;48.838;10.112;2024-03-02T04:08:24;4.10;92.40
17762;DHT22;9005;48.838;10.112;2024-03-02T04:10:51;4.10;92.60
17762;DHT22;9005;48.838;10.112;2024-03-02T04:13:18;4.10;92.70
17762;DHT22;9005;48.838;10.112;2024-03-02T04:15:45;4.10;92.80
17762;DHT22;9005;48.838;10.112;2024-03-02T04:18:11;4.20;92.80
17762;DHT22;9005;48.838;10.112;2024-03-02T04:20:38;4.20;92.70
17762;DHT22;9005;48.838;10.112;2024-03-02T04:23:06;4.10;92.40
17762;DHT22;9005;48.838;10.112;2024-03-02T04:25:33;4.10;92.30
17762;DHT22;9005;48.838;10.112;2024-03-02T04:27:59;4.10;92.40
17762;DHT22;9005;48.838;10.112;2024-03-02T04:30:26;4.00;92.40
17762;DHT22;9005;48.838;10.112;2024-03-02T04:32:53;4.00;92.30
17762;DHT22;9005;48.838;10.112;2024-03-02T04:35:19;3.90;92.20
17762;DHT22;9005;48.838;10.112;2024-03-02T04:37:46;3.90;92.40
17762;DHT22;9005;48.838;10.112;2024-03-02T04:40:14;3.80;92.50
17762;DHT22;9005;48.838;10.112;2024-03-02T04:42:41;3.80;92.70
17762;DHT22;9005;48.838;10.112;2024-03-02T04:45:08;3.70;92.60
17762;DHT22;9005;48.838;10.112;2024-03-02T04:47:35;3.70;92.70
17762;DHT22;9005;48.838;10.112;2024-03-02T04:50:02;3.70;93.00
17762;DHT22;9005;48.838;10.112;2024-03-02T04:52:29;3.70;93.00
17762;DHT22;9005;48.838;10.112;2024-03-02T04:54:55;3.60;93.10
17762;DHT22;9005;48.838;10.112;2024-03-02T04:57:37;3.60;93.20
17762;DHT22;9005;48.838;10.112;2024-03-02T05:00:05;3.60;93.10
17762;DHT22;9005;48.838;10.112;2024-03-02T05:02:34;3.60;93.30
17762;DHT22;9005;48.838;10.112;2024-03-02T05:05:01;3.60;93.50
17762;DHT22;9005;48.838;10.112;2024-03-02T05:07:28;3.60;93.80
17762;DHT22;9005;48.838;10.112;2024-03-02T05:09:54;3.70;94.00
17762;DHT22;9005;48.838;10.112;2024-03-02T05:12:21;3.70;94.00
17762;DHT22;9005;48.838;10.112;2024-03-02T05:15:14;3.70;94.00
17762;DHT22;9005;48.838;10.112;2024-03-02T05:17:41;3.70;94.00
17762;DHT22;9005;48.838;10.112;2024-03-02T05:20:09;3.70;94.00
17762;DHT22;9005;48.838;10.112;2024-03-02T05:22:36;3.70;94.00
17762;DHT22;9005;48.838;10.112;2024-03-02T05:25:04;3.70;94.00
17762;DHT22;9005;48.838;10.112;2024-03-02T05:27:31;3.60;94.00
17762;DHT22;9005;48.838;10.112;2024-03-02T05:29:58;3.60;93.90
17762;DHT22;9005;48.838;10.112;2024-03-02T05:32:26;3.60;94.00
17762;DHT22;9005;48.838;10.112;2024-03-02T05:34:53;3.60;94.10
17762;DHT22;9005;48.838;10.112;2024-03-02T05:37:20;3.60;94.20
17762;DHT22;9005;48.838;10.112;2024-03-02T05:39:47;3.60;94.30
17762;DHT22;9005;48.838;10.112;2024-03-02T05:42:13;3.60;94.30
17762;DHT22;9005;48.838;10.112;2024-03-02T05:44:42;3.60;94.30
17762;DHT22;9005;48.838;10.112;2024-03-02T05:47:08;3.60;94.40
17762;DHT22;9005;48.838;10.112;2024-03-02T05:49:37;3.80;94.30
17762;DHT22;9005;48.838;10.112;2024-03-02T05:52:04;3.60;94.30
17762;DHT22;9005;48.838;10.112;2024-03-02T05:54:30;3.60;94.40
17762;DHT22;9005;48.838;10.112;2024-03-02T05:56:57;3.60;94.30
17762;DHT22;9005;48.838;10.112;2024-03-02T05:59:41;3.60;94.30
17762;DHT22;9005;48.838;10.112;2024-03-02T06:02:09;3.60;94.30
17762;DHT22;9005;48.838;10.112;2024-03-02T06:04:37;3.80;94.20
17762;DHT22;9005;48.838;10.112;2024-03-02T06:07:03;3.80;94.40
17762;DHT22;9005;48.838;10.112;2024-03-02T06:09:30;3.60;94.30
17762;DHT22;9005;48.838;10.112;2024-03-02T06:11:57;3.70;94.40
17762;DHT22;9005;48.838;10.112;2024-03-02T06:14:24;3.70;94.40
17762;DHT22;9005;48.838;10.112;2024-03-02T06:16:50;3.80;94.40
17762;DHT22;9005;48.838;10.112;2024-03-02T06:19:17;3.80;94.40
17762;DHT22;9005;48.838;10.112;2024-03-02T06:21:45;3.90;94.30
17762;DHT22;9005;48.838;10.112;2024-03-02T06:24:12;3.90;94.40
17762;DHT22;9005;48.838;10.112;2024-03-02T06:26:39;4.00;94.40
17762;DHT22;9005;48.838;10.112;2024-03-02T06:29:05;4.10;94.20
17762;DHT22;9005;48.838;10.112;2024-03-02T06:31:33;4.20;94.00
17762;DHT22;9005;48.838;10.112;2024-03-02T06:33:59;4.20;93.80
17762;DHT22;9005;48.838;10.112;2024-03-02T06:36:26;4.30;93.50
17762;DHT22;9005;48.838;10.112;2024-03-02T06:38:54;4.30;93.30
17762;DHT22;9005;48.838;10.112;2024-03-02T06:41:21;4.40;92.90
17762;DHT22;9005;48.838;10.112;2024-03-02T06:43:47;4.40;92.60
17762;DHT22;9005;48.838;10.112;2024-03-02T06:46:14;4.50;92.40
17762;DHT22;9005;48.838;10.112;2024-03-02T06:48:41;4.50;92.00
17762;DHT22;9005;48.838;10.112;2024-03-02T06:51:07;4.60;91.60
17762;DHT22;9005;48.838;10.112;2024-03-02T06:53:34;4.60;91.50
17762;DHT22;9005;48.838;10.112;2024-03-02T06:56:03;4.70;91.10
17762;DHT22;9005;48.838;10.112;2024-03-02T06:58:29;4.80;91.10
17762;DHT22;9005;48.838;10.112;2024-03-02T07:00:56;4.80;90.70
17762;DHT22;9005;48.838;10.112;2024-03-02T07:03:23;4.90;90.40
17762;DHT22;9005;48.838;10.112;2024-03-02T07:05:50;5.00;90.10
17762;DHT22;9005;48.838;10.112;2024-03-02T07:08:16;5.00;89.60
17762;DHT22;9005;48.838;10.112;2024-03-02T07:10:43;5.10;89.50
17762;DHT22;9005;48.838;10.112;2024-03-02T07:13:11;5.20;89.20
17762;DHT22;9005;48.838;10.112;2024-03-02T07:15:38;5.20;88.30
17762;DHT22;9005;48.838;10.112;2024-03-02T07:18:38;5.30;88.20
17762;DHT22;9005;48.838;10.112;2024-03-02T07:21:07;5.40;87.50
17762;DHT22;9005;48.838;10.112;2024-03-02T07:23:34;5.50;87.10
17762;DHT22;9005;48.838;10.112;2024-03-02T07:26:01;5.60;86.60
17762;DHT22;9005;48.838;10.112;2024-03-02T07:28:30;5.70;86.50
17762;DHT22;9005;48.838;10.112;2024-03-02T07:30:58;5.80;85.90
17762;DHT22;9005;48.838;10.112;2024-03-02T07:33:25;5.90;85.50
17762;DHT22;9005;48.838;10.112;2024-03-02T07:35:52;6.00;85.30
17762;DHT22;9005;48.838;10.112;2024-03-02T07:38:18;6.10;84.80
17762;DHT22;9005;48.838;10.112;2024-03-02T07:40:45;6.20;84.50
17762;DHT22;9005;48.838;10.112;2024-03-02T07:43:12;6.40;83.60
17762;DHT22;9005;48.838;10.112;2024-03-02T07:45:40;6.50;82.80
17762;DHT22;9005;48.838;10.112;2024-03-02T07:48:07;6.60;82.60
17762;DHT22;9005;48.838;10.112;2024-03-02T07:50:34;6.70;81.60
17762;DHT22;9005;48.838;10.112;2024-03-02T07:53:00;6.80;81.60
17762;DHT22;9005;48.838;10.112;2024-03-02T07:55:27;6.90;80.90
17762;DHT22;9005;48.838;10.112;2024-03-02T07:57:54;7.00;80.60
17762;DHT22;9005;48.838;10.112;2024-03-02T08:00:21;7.10;80.10
17762;DHT22;9005;48.838;10.112;2024-03-02T08:02:50;7.30;79.70
17762;DHT22;9005;48.838;10.112;2024-03-02T08:05:17;7.40;78.90
17762;DHT22;9005;48.838;10.112;2024-03-02T08:07:45;7.50;78.50
17762;DHT22;9005;48.838;10.112;2024-03-02T08:10:12;7.60;78.00
17762;DHT22;9005;48.838;10.112;2024-03-02T08:12:39;7.70;77.60
17762;DHT22;9005;48.838;10.112;2024-03-02T08:15:06;7.90;77.70
17762;DHT22;9005;48.838;10.112;2024-03-02T08:17:33;8.00;76.60
17762;DHT22;9005;48.838;10.112;2024-03-02T08:20:01;8.20;76.00
17762;DHT22;9005;48.838;10.112;2024-03-02T08:22:28;8.30;74.40
17762;DHT22;9005;48.838;10.112;2024-03-02T08:24:55;8.40;73.20
17762;DHT22;9005;48.838;10.112;2024-03-02T08:27:21;8.50;73.60
17762;DHT22;9005;48.838;10.112;2024-03-02T08:29:48;8.60;73.10
17762;DHT22;9005;48.838;10.112;2024-03-02T08:32:15;8.60;72.90
17762;DHT22;9005;48.838;10.112;2024-03-02T08:34:43;8.70;72.80
17762;DHT22;9005;48.838;10.112;2024-03-02T08:37:11;8.80;73.20
17762;DHT22;9005;48.838;10.112;2024-03-02T08:39:38;8.90;72.80
17762;DHT22;9005;48.838;10.112;2024-03-02T08:42:05;8.90;72.20
17762;DHT22;9005;48.838;10.112;2024-03-02T08:44:32;9.10;71.50
17762;DHT22;9005;48.838;10.112;2024-03-02T08:46:58;9.10;71.10
17762;DHT22;9005;48.838;10.112;2024-03-02T08:49:25;9.00;71.30
17762;DHT22;9005;48.838;10.112;2024-03-02T08:51:52;8.90;71.90
17762;DHT22;9005;48.838;10.112;2024-03-02T08:54:22;8.90;72.60
17762;DHT22;9005;48.838;10.112;2024-03-02T08:56:48;8.90;72.20
17762;DHT22;9005;48.838;10.112;2024-03-02T08:59:15;9.00;71.70
17762;DHT22;9005;48.838;10.112;2024-03-02T09:01:42;9.00;71.70
17762;DHT22;9005;48.838;10.112;2024-03-02T09:04:10;9.00;71.50
17762;DHT22;9005;48.838;10.112;2024-03-02T09:06:37;9.00;71.20
17762;DHT22;9005;48.838;10.112;2024-03-02T09:09:03;9.10;70.80
17762;DHT22;9005;48.838;10.112;2024-03-02T09:11:33;8.90;70.60
17762;DHT22;9005;48.838;10.112;2024-03-02T09:14:01;8.80;71.20
17762;DHT22;9005;48.838;10.112;2024-03-02T09:16:28;8.90;72.60
17762;DHT22;9005;48.838;10.112;2024-03-02T09:18:56;9.10;71.90
17762;DHT22;9005;48.838;10.112;2024-03-02T09:21:22;9.30;71.10
17762;DHT22;9005;48.838;10.112;2024-03-02T09:23:50;9.50;70.50
17762;DHT22;9005;48.838;10.112;2024-03-02T09:26:17;9.60;70.00
17762;DHT22;9005;48.838;10.112;2024-03-02T09:28:46;9.80;69.70
17762;DHT22;9005;48.838;10.112;2024-03-02T09:31:13;9.90;69.10
17762;DHT22;9005;48.838;10.112;2024-03-02T09:33:40;10.10;68.50
17762;DHT22;9005;48.838;10.112;2024-03-02T09:36:16;10.20;67.00
17762;DHT22;9005;48.838;10.112;2024-03-02T09:38:43;10.30;67.30
17762;DHT22;9005;48.838;10.112;2024-03-02T09:41:10;10.30;66.90
17762;DHT22;9005;48.838;10.112;2024-03-02T09:43:37;10.20;66.40
17762;DHT22;9005;48.838;10.112;2024-03-02T09:46:06;10.20;66.40
17762;DHT22;9005;48.838;10.112;2024-03-02T09:48:33;10.20;67.10
17762;DHT22;9005;48.838;10.112;2024-03-02T09:51:00;10.40;66.90
17762;DHT22;9005;48.838;10.112;2024-03-02T09:53:31;10.90;65.50
17762;DHT22;9005;48.838;10.112;2024-03-02T09:55:59;11.90;63.70
17762;DHT22;9005;48.838;10.112;2024-03-02T09:58:26;13.40;58.80
17762;DHT22;9005;48.838;10.112;2024-03-02T10:00:52;14.90;53.90
17762;DHT22;9005;48.838;10.112;2024-03-02T10:03:22;16.50;51.00
17762;DHT22;9005;48.838;10.112;2024-03-02T10:05:49;17.80;48.60
17762;DHT22;9005;48.838;10.112;2024-03-02T10:08:17;19.00;44.50
17762;DHT22;9005;48.838;10.112;2024-03-02T10:10:44;19.90;42.30
17762;DHT22;9005;48.838;10.112;2024-03-02T10:13:12;20.80;40.10
17762;DHT22;9005;48.838;10.112;2024-03-02T10:15:40;22.10;38.20
17762;DHT22;9005;48.838;10.112;2024-03-02T10:18:09;23.40;36.20
17762;DHT22;9005;48.838;10.112;2024-03-02T10:20:39;23.50;34.10
17762;DHT22;9005;48.838;10.112;2024-03-02T10:23:12;22.90;34.40
17762;DHT22;9005;48.838;10.112;2024-03-02T10:25:39;22.20;34.60
17762;DHT22;9005;48.838;10.112;2024-03-02T10:28:06;21.30;36.60
17762;DHT22;9005;48.838;10.112;2024-03-02T10:30:33;20.50;36.70
17762;DHT22;9005;48.838;10.112;2024-03-02T10:33:01;20.10;38.10
17762;DHT22;9005;48.838;10.112;2024-03-02T10:35:28;20.00;38.50
17762;DHT22;9005;48.838;10.112;2024-03-02T10:37:59;19.80;38.30
17762;DHT22;9005;48.838;10.112;2024-03-02T10:40:26;19.70;38.60
17762;DHT22;9005;48.838;10.112;2024-03-02T10:42:53;19.70;39.30
17762;DHT22;9005;48.838;10.112;2024-03-02T10:45:20;19.70;38.50
17762;DHT22;9005;48.838;10.112;2024-03-02T10:47:48;19.90;38.40
17762;DHT22;9005;48.838;10.112;2024-03-02T10:50:16;19.90;37.60
17762;DHT22;9005;48.838;10.112;2024-03-02T10:52:43;19.20;38.10
17762;DHT22;9005;48.838;10.112;2024-03-02T10:55:11;17.90;40.20
17762;DHT22;9005;48.838;10.112;2024-03-02T10:57:42;17.50;41.30
17762;DHT22;9005;48.838;10.112;2024-03-02T11:00:12;16.90;42.10
17762;DHT22;9005;48.838;10.112;2024-03-02T11:02:46;15.90;44.60
17762;DHT22;9005;48.838;10.112;2024-03-02T11:05:23;15.40;45.20
17762;DHT22;9005;48.838;10.112;2024-03-02T11:07:53;15.20;45.60
17762;DHT22;9005;48.838;10.112;2024-03-02T11:10:21;15.20;45.90
17762;DHT22;9005;48.838;10.112;2024-03-02T11:13:00;15.20;46.30
17762;DHT22;9005;48.838;10.112;2024-03-02T11:15:28;15.40;46.00
17762;DHT22;9005;48.838;10.112;2024-03-02T11:17:56;15.70;45.10
17762;DHT22;9005;48.838;10.112;2024-03-02T11:20:23;15.80;44.30
17762;DHT22;9005;48.838;10.112;2024-03-02T11:22:51;15.50;45.90
17762;DHT22;9005;48.838;10.112;2024-03-02T11:25:26;15.50;46.10
17762;DHT22;9005;48.838;10.112;2024-03-02T11:28:01;15.20;46.20
17762;DHT22;9005;48.838;10.112;2024-03-02T11:30:51;15.10;46.30
17762;DHT22;9005;48.838;10.112;2024-03-02T11:33:27;14.90;46.90
17762;DHT22;9005;48.838;10.112;2024-03-02T11:35:55;14.90;47.70
17762;DHT22;9005;48.838;10.112;2024-03-02T11:38:22;14.90;47.50
17762;DHT22;9005;48.838;10.112;2024-03-02T11:40:51;14.80;47.90
17762;DHT22;9005;48.838;10.112;2024-03-02T11:43:19;14.90;48.30
17762;DHT22;9005;48.838;10.112;2024-03-02T11:45:46;14.90;48.80
17762;DHT22;9005;48.838;10.112;2024-03-02T11:48:14;15.60;48.40
17762;DHT22;9005;48.838;10.112;2024-03-02T11:50:42;17.40;45.40
17762;DHT22;9005;48.838;10.112;2024-03-02T11:53:10;19.10;41.20
17762;DHT22;9005;48.838;10.112;2024-03-02T11:55:38;20.30;39.60
17762;DHT22;9005;48.838;10.112;2024-03-02T11:58:07;21.40;38.10
17762;DHT22;9005;48.838;10.112;2024-03-02T12:00:34;21.90;36.30
17762;DHT22;9005;48.838;10.112;2024-03-02T12:03:02;22.30;35.60
17762;DHT22;9005;48.838;10.112;2024-03-02T12:05:30;23.10;35.20
17762;DHT22;9005;48.838;10.112;2024-03-02T12:07:57;24.00;33.10
17762;DHT22;9005;48.838;10.112;2024-03-02T12:10:24;24.10;32.00
17762;DHT22;9005;48.838;10.112;2024-03-02T12:12:56;23.60;32.30
17762;DHT22;9005;48.838;10.112;2024-03-02T12:15:25;23.20;33.60
17762;DHT22;9005;48.838;10.112;2024-03-02T12:17:54;23.90;33.50
17762;DHT22;9005;48.838;10.112;2024-03-02T12:20:20;25.10;31.80
17762;DHT22;9005;48.838;10.112;2024-03-02T12:22:49;26.40;30.50
17762;DHT22;9005;48.838;10.112;2024-03-02T12:25:16;27.50;28.70
17762;DHT22;9005;48.838;10.112;2024-03-02T12:27:43;28.40;28.50
17762;DHT22;9005;48.838;10.112;2024-03-02T12:30:11;29.10;27.50
17762;DHT22;9005;48.838;10.112;2024-03-02T12:32:40;29.80;26.60
17762;DHT22;9005;48.838;10.112;2024-03-02T12:35:08;30.30;26.40
17762;DHT22;9005;48.838;10.112;2024-03-02T12:37:42;30.70;25.60
17762;DHT22;9005;48.838;10.112;2024-03-02T12:40:10;30.80;25.60
17762;DHT22;9005;48.838;10.112;2024-03-02T12:42:37;31.00;25.00
17762;DHT22;9005;48.838;10.112;2024-03-02T12:45:04;31.10;24.80
17762;DHT22;9005;48.838;10.112;2024-03-02T12:47:32;31.10;24.70
17762;DHT22;9005;48.838;10.112;2024-03-02T12:50:00;31.20;23.90
17762;DHT22;9005;48.838;10.112;2024-03-02T12:52:27;31.40;24.60
17762;DHT22;9005;48.838;10.112;2024-03-02T12:54:53;31.50;24.60
17762;DHT22;9005;48.838;10.112;2024-03-02T12:57:25;31.60;24.40
17762;DHT22;9005;48.838;10.112;2024-03-02T12:59:58;31.80;23.90
17762;DHT22;9005;48.838;10.112;2024-03-02T13:02:27;31.60;24.40
17762;DHT22;9005;48.838;10.112;2024-03-02T13:04:54;31.40;24.50
17762;DHT22;9005;48.838;10.112;2024-03-02T13:07:23;31.30;24.20
17762;DHT22;9005;48.838;10.112;2024-03-02T13:09:50;31.10;23.80
17762;DHT22;9005;48.838;10.112;2024-03-02T13:12:17;31.00;23.70
17762;DHT22;9005;48.838;10.112;2024-03-02T13:14:48;30.90;24.20
17762;DHT22;9005;48.838;10.112;2024-03-02T13:17:16;30.60;23.80
17762;DHT22;9005;48.838;10.112;2024-03-02T13:19:50;30.40;24.10
17762;DHT22;9005;48.838;10.112;2024-03-02T13:22:18;30.40;24.00
17762;DHT22;9005;48.838;10.112;2024-03-02T13:24:46;30.40;24.80
17762;DHT22;9005;48.838;10.112;2024-03-02T13:27:13;30.30;24.60
17762;DHT22;9005;48.838;10.112;2024-03-02T13:29:39;30.20;24.80
17762;DHT22;9005;48.838;10.112;2024-03-02T13:32:06;30.40;24.50
17762;DHT22;9005;48.838;10.112;2024-03-02T13:34:35;30.40;24.60
17762;DHT22;9005;48.838;10.112;2024-03-02T13:37:01;30.20;24.90
17762;DHT22;9005;48.838;10.112;2024-03-02T13:39:29;29.80;24.60
17762;DHT22;9005;48.838;10.112;2024-03-02T13:41:58;28.10;26.10
17762;DHT22;9005;48.838;10.112;2024-03-02T13:44:29;27.30;27.60
17762;DHT22;9005;48.838;10.112;2024-03-02T13:46:56;27.30;28.40
17762;DHT22;9005;48.838;10.112;2024-03-02T13:49:23;27.70;28.10
17762;DHT22;9005;48.838;10.112;2024-03-02T13:51:54;28.10;28.50
17762;DHT22;9005;48.838;10.112;2024-03-02T13:54:22;28.60;27.60
17762;DHT22;9005;48.838;10.112;2024-03-02T13:56:48;28.90;27.70
17762;DHT22;9005;48.838;10.112;2024-03-02T13:59:17;29.10;27.80
17762;DHT22;9005;48.838;10.112;2024-03-02T14:01:44;29.00;28.10
17762;DHT22;9005;48.838;10.112;2024-03-02T14:04:11;29.10;27.80
17762;DHT22;9005;48.838;10.112;2024-03-02T14:06:39;29.10;27.40
17762;DHT22;9005;48.838;10.112;2024-03-02T14:09:08;28.70;27.70
17762;DHT22;9005;48.838;10.112;2024-03-02T14:11:35;28.70;27.80
17762;DHT22;9005;48.838;10.112;2024-03-02T14:14:02;28.90;27.50
17762;DHT22;9005;48.838;10.112;2024-03-02T14:16:30;29.20;27.50
17762;DHT22;9005;48.838;10.112;2024-03-02T14:18:57;29.40;26.60
17762;DHT22;9005;48.838;10.112;2024-03-02T14:21:24;29.40;27.40
17762;DHT22;9005;48.838;10.112;2024-03-02T14:23:51;29.70;26.50
17762;DHT22;9005;48.838;10.112;2024-03-02T14:26:18;29.90;26.20
17762;DHT22;9005;48.838;10.112;2024-03-02T14:28:45;30.00;26.40
17762;DHT22;9005;48.838;10.112;2024-03-02T14:31:11;30.00;26.20
17762;DHT22;9005;48.838;10.112;2024-03-02T14:33:39;29.90;26.10
17762;DHT22;9005;48.838;10.112;2024-03-02T14:36:06;29.30;27.80
17762;DHT22;9005;48.838;10.112;2024-03-02T14:38:33;29.10;27.90
17762;DHT22;9005;48.838;10.112;2024-03-02T14:41:00;29.00;27.50
17762;DHT22;9005;48.838;10.112;2024-03-02T14:43:28;28.80;27.60
17762;DHT22;9005;48.838;10.112;2024-03-02T14:45:55;28.60;27.80
17762;DHT22;9005;48.838;10.112;2024-03-02T14:48:22;28.60;27.90
17762;DHT22;9005;48.838;10.112;2024-03-02T14:50:51;28.70;28.10
17762;DHT22;9005;48.838;10.112;2024-03-02T14:53:18;28.40;28.10
17762;DHT22;9005;48.838;10.112;2024-03-02T14:55:44;28.10;28.50
17762;DHT22;9005;48.838;10.112;2024-03-02T14:58:11;27.90;28.90
17762;DHT22;9005;48.838;10.112;2024-03-02T15:00:38;27.60;28.50
17762;DHT22;9005;48.838;10.112;2024-03-02T15:03:05;27.40;29.00
17762;DHT22;9005;48.838;10.112;2024-03-02T15:05:34;27.30;29.40
17762;DHT22;9005;48.838;10.112;2024-03-02T15:08:02;27.40;28.70
17762;DHT22;9005;48.838;10.112;2024-03-02T15:10:30;27.50;29.10
17762;DHT22;9005;48.838;10.112;2024-03-02T15:12:57;27.50;28.60
17762;DHT22;9005;48.838;10.112;2024-03-02T15:15:24;27.50;28.00
17762;DHT22;9005;48.838;10.112;2024-03-02T15:17:52;27.30;28.50
17762;DHT22;9005;48.838;10.112;2024-03-02T15:20:18;27.00;28.80
17762;DHT22;9005;48.838;10.112;2024-03-02T15:22:46;26.70;29.10
17762;DHT22;9005;48.838;10.112;2024-03-02T15:25:14;26.50;29.30
17762;DHT22;9005;48.838;10.112;2024-03-02T15:27:41;26.30;29.70
17762;DHT22;9005;48.838;10.112;2024-03-02T15:30:08;26.30;29.40
17762;DHT22;9005;48.838;10.112;2024-03-02T15:32:35;26.30;29.90
17762;DHT22;9005;48.838;10.112;2024-03-02T15:35:04;26.20;29.60
17762;DHT22;9005;48.838;10.112;2024-03-02T15:37:31;25.80;29.60
17762;DHT22;9005;48.838;10.112;2024-03-02T15:39:58;25.10;30.60
17762;DHT22;9005;48.838;10.112;2024-03-02T15:42:32;24.60;31.70